Time;durP1;ratioP1;P1;durP2;ratioP2;P2;SDS_P1;SDS_P2;PMS_P1;PMS_P2;Temp;Humidity;BMP_temperature;BMP_pressure;BME280_temperature;BME280_humidity;BME280_pressure;Samples;Min_cycle;Max_cycle;Signal;HPM_P1;HPM_P2
2023/01/10 04:55:45;;;;;;;2.97;2.70;;;;;;;5.54;100.00;99138.00;6168194;28;20629;-83
2023/01/10 04:58:49;;;;;;;3.28;2.70;;;;;;;5.51;100.00;99146.38;5343815;33;33884;-84
2023/01/10 05:01:56;;;;;;;2.90;2.70;;;;;;;5.53;100.00;99156.88;5344097;33;33971;-84
2023/01/10 05:04:59;;;;;;;2.70;2.50;;;;;;;5.56;100.00;99156.53;5343184;33;35489;-84
2023/01/10 05:08:02;;;;;;;2.37;2.17;;;;;;;5.58;100.00;99167.84;5343765;33;34072;-84
2023/01/10 05:11:05;;;;;;;2.65;2.40;;;;;;;5.68;100.00;99177.31;5343302;33;35644;-84
2023/01/10 05:14:07;;;;;;;3.20;2.90;;;;;;;5.67;100.00;99178.34;5343539;33;35487;-84
2023/01/10 05:17:10;;;;;;;2.42;2.22;;;;;;;5.74;100.00;99185.63;5352121;33;34009;-84
2023/01/10 05:20:14;;;;;;;2.50;2.40;;;;;;;5.77;100.00;99185.28;5355096;33;35004;-84
2023/01/10 05:23:17;;;;;;;2.20;2.10;;;;;;;5.74;100.00;99185.63;5343329;33;34313;-84
2023/01/10 05:26:22;;;;;;;3.03;2.40;;;;;;;5.77;100.00;99195.97;5343951;33;34023;-84
2023/01/10 05:29:25;;;;;;;2.30;2.12;;;;;;;5.74;100.00;99207.00;5345412;33;34255;-84
2023/01/10 05:32:28;;;;;;;2.97;2.53;;;;;;;5.66;100.00;99210.53;5345869;33;34140;-85
2023/01/10 05:35:31;;;;;;;2.95;2.37;;;;;;;5.71;100.00;99210.03;5348377;33;33923;-84
2023/01/10 05:38:34;;;;;;;2.60;2.40;;;;;;;5.68;100.00;99204.00;5347175;33;34289;-84
2023/01/10 05:41:37;;;;;;;2.60;2.40;;;;;;;5.67;100.00;99206.84;5346980;33;33504;-84
2023/01/10 05:44:39;;;;;;;2.45;2.35;;;;;;;5.65;100.00;99206.22;5343740;33;33993;-84
2023/01/10 05:47:43;;;;;;;3.22;2.92;;;;;;;5.71;100.00;99202.00;5345797;33;33973;-84
2023/01/10 05:50:48;;;;;;;2.90;2.70;;;;;;;5.74;100.00;99194.47;5345988;33;34114;-84
2023/01/10 05:53:51;;;;;;;2.70;2.50;;;;;;;5.68;100.00;99200.53;5346094;33;33995;-85
2023/01/10 05:56:54;;;;;;;3.08;2.80;;;;;;;5.74;100.00;99215.84;5332370;33;32438;-85
2023/01/10 05:59:57;;;;;;;2.85;2.65;;;;;;;5.68;100.00;99214.69;5326006;33;34017;-84
2023/01/10 06:03:00;;;;;;;3.92;3.05;;;;;;;5.72;100.00;99223.19;5325407;33;34008;-85
2023/01/10 06:06:03;;;;;;;2.92;2.62;;;;;;;5.74;100.00;99228.38;5312266;33;32249;-85
2023/01/10 06:09:06;;;;;;;2.87;2.67;;;;;;;5.74;100.00;99228.38;5324730;33;33673;-84
2023/01/10 06:12:09;;;;;;;3.20;2.90;;;;;;;5.75;100.00;99240.69;5324539;33;34099;-85
2023/01/10 06:15:12;;;;;;;3.15;2.50;;;;;;;5.77;100.00;99244.03;5324889;33;34392;-85
2023/01/10 06:18:15;;;;;;;2.55;2.37;;;;;;;5.78;100.00;99251.03;5322828;33;35427;-85
2023/01/10 06:21:18;;;;;;;2.83;2.45;;;;;;;5.74;100.00;99253.22;5317625;33;33671;-84
2023/01/10 06:24:21;;;;;;;3.25;2.95;;;;;;;5.76;100.00;99258.38;5326863;33;33942;-84
2023/01/10 06:27:24;;;;;;;2.85;2.37;;;;;;;5.79;100.00;99266.03;5325550;33;33885;-84
2023/01/10 06:30:27;;;;;;;2.47;2.08;;;;;;;5.74;100.00;99265.75;5325111;33;33542;-84
2023/01/10 06:33:30;;;;;;;1.40;1.40;;;;;;;5.63;100.00;99283.81;5325818;33;34272;-83
2023/01/10 06:36:33;;;;;;;1.42;1.33;;;;;;;5.49;100.00;99287.19;5325431;33;34471;-89
2023/01/10 06:39:36;;;;;;;1.95;1.73;;;;;;;5.43;100.00;99287.88;5323715;33;34422;-89
2023/01/10 06:42:40;;;;;;;2.00;1.73;;;;;;;5.35;100.00;99293.22;5324768;33;33741;-89
2023/01/10 06:45:42;;;;;;;1.52;1.42;;;;;;;5.40;100.00;99289.03;5316219;33;33987;-89
2023/01/10 06:48:48;;;;;;;1.70;1.60;;;;;;;5.31;100.00;99286.59;5325460;33;33706;-85
2023/01/10 06:51:50;;;;;;;1.52;1.42;;;;;;;5.26;100.00;99289.75;5312464;33;32791;-85
2023/01/10 06:54:53;;;;;;;1.48;1.37;;;;;;;5.27;100.00;99293.28;5324973;33;34780;-85
2023/01/10 06:58:03;;;;;;;1.70;1.58;;;;;;;5.21;100.00;99298.28;5296433;33;31620;-85
2023/01/10 07:01:15;;;;;;;1.50;1.40;;;;;;;5.23;100.00;99306.97;5309122;33;124635;-85
2023/01/10 07:04:18;;;;;;;3.47;1.80;;;;;;;5.17;100.00;99312.94;5325013;33;34052;-85
2023/01/10 07:07:21;;;;;;;1.65;1.50;;;;;;;5.20;100.00;99317.13;5322940;33;33676;-85
2023/01/10 07:10:23;;;;;;;1.65;1.55;;;;;;;5.15;100.00;99324.81;5322128;33;35086;-85
2023/01/10 07:13:27;;;;;;;1.48;1.37;;;;;;;5.17;100.00;99336.13;5310876;33;32552;-85
2023/01/10 07:16:29;;;;;;;2.30;1.60;;;;;;;5.11;100.00;99342.97;5328731;33;34107;-83
2023/01/10 07:19:32;;;;;;;1.60;1.50;;;;;;;5.17;100.00;99355.63;5331412;33;34184;-84
2023/01/10 07:22:37;;;;;;;1.48;1.37;;;;;;;5.17;100.00;99371.66;5313404;33;32463;-85
2023/01/10 07:25:40;;;;;;;1.75;1.65;;;;;;;5.12;100.00;99373.16;5326386;33;33802;-84
2023/01/10 07:28:50;;;;;;;1.60;1.50;;;;;;;5.09;100.00;99385.00;5326041;33;33682;-86
2023/01/10 07:31:53;;;;;;;2.10;1.70;;;;;;;5.15;100.00;99373.66;5325408;33;34778;-84
2023/01/10 07:34:56;;;;;;;1.90;1.80;;;;;;;5.14;100.00;99384.50;5324526;33;34980;-84
2023/01/10 07:37:59;;;;;;;2.35;1.80;;;;;;;5.24;100.00;99387.84;5323368;33;34404;-84
2023/01/10 07:41:02;;;;;;;1.50;1.40;;;;;;;5.15;100.00;99389.69;5324262;33;34090;-85
2023/01/10 07:44:05;;;;;;;1.70;1.58;;;;;;;5.13;100.00;99397.00;5322278;33;33599;-84
2023/01/10 07:47:08;;;;;;;1.50;1.40;;;;;;;5.12;100.00;99408.69;5309683;33;32317;-85
2023/01/10 07:50:11;;;;;;;2.35;1.40;;;;;;;5.09;100.00;99409.03;5327774;33;34198;-85
2023/01/10 07:53:13;;;;;;;1.50;1.40;;;;;;;5.11;100.00;99424.84;5333899;33;34054;-85
2023/01/10 07:56:17;;;;;;;1.65;1.50;;;;;;;5.09;100.00;99429.50;5336887;33;34368;-85
2023/01/10 07:59:20;;;;;;;1.98;1.70;;;;;;;5.07;100.00;99437.69;5326898;33;34599;-85
2023/01/10 08:02:22;;;;;;;1.70;1.55;;;;;;;5.05;100.00;99445.00;5325393;33;34774;-84
2023/01/10 08:05:26;;;;;;;2.65;1.90;;;;;;;5.09;100.00;99448.19;5326377;33;34376;-85
2023/01/10 08:08:30;;;;;;;1.95;1.48;;;;;;;5.08;100.00;99452.69;5320517;33;34623;-85
2023/01/10 08:11:33;;;;;;;1.50;1.40;;;;;;;5.10;100.00;99456.03;5325755;33;33636;-85
2023/01/10 08:14:36;;;;;;;2.12;1.83;;;;;;;5.09;100.00;99475.72;5326393;33;33974;-84
2023/01/10 08:17:39;;;;;;;1.50;1.40;;;;;;;5.04;100.00;99480.69;5334833;33;34159;-84
2023/01/10 08:20:42;;;;;;;1.48;1.37;;;;;;;5.00;100.00;99495.34;5331053;33;33822;-84
2023/01/10 08:23:45;;;;;;;1.77;1.42;;;;;;;5.00;100.00;99495.34;5326428;33;33927;-84
2023/01/10 08:26:48;;;;;;;3.90;1.65;;;;;;;4.99;100.00;99501.69;5324948;33;35160;-84
2023/01/10 08:29:51;;;;;;;1.45;1.35;;;;;;;4.99;100.00;99512.38;5325822;33;33694;-85
2023/01/10 08:32:53;;;;;;;2.70;1.70;;;;;;;5.00;100.00;99519.34;5325508;33;33887;-85
2023/01/10 08:35:56;;;;;;;1.60;1.33;;;;;;;4.98;100.00;99521.37;5324729;33;33635;-84
2023/01/10 08:38:59;;;;;;;3.08;1.48;;;;;;;4.98;100.00;99529.37;5312225;33;35119;-86
2023/01/10 08:42:02;;;;;;;1.50;1.40;;;;;;;4.92;100.00;99525.53;5326003;33;36181;-83
2023/01/10 08:45:05;;;;;;;2.33;1.77;;;;;;;4.86;100.00;99542.19;5311084;33;32342;-88
2023/01/10 08:48:09;;;;;;;1.62;1.48;;;;;;;4.84;100.00;99546.00;5311803;33;33899;-89
2023/01/10 08:51:11;;;;;;;1.65;1.30;;;;;;;4.81;100.00;99554.31;5333485;33;34086;-89
2023/01/10 08:54:14;;;;;;;1.52;1.42;;;;;;;4.84;100.00;99559.31;5326729;33;34302;-89
2023/01/10 08:57:17;;;;;;;1.37;1.27;;;;;;;4.81;100.00;99563.16;5332369;33;34224;-85
2023/01/10 09:00:21;;;;;;;1.40;1.30;;;;;;;4.75;100.00;99569.13;5322996;33;33386;-86
2023/01/10 09:03:24;;;;;;;1.10;1.10;;;;;;;4.69;100.00;99581.25;5325194;33;33998;-85
2023/01/10 09:06:27;;;;;;;1.70;1.48;;;;;;;4.70;100.00;99588.25;5317767;33;32701;-84
2023/01/10 09:09:29;;;;;;;1.87;1.70;;;;;;;4.75;100.00;99603.78;5325603;33;34306;-85
2023/01/10 09:15:55;;;;;;;2.10;1.45;;;;;;;4.72;100.00;99617.44;5327836;33;34030;-84
2023/01/10 09:18:58;;;;;;;1.50;1.40;;;;;;;4.81;100.00;99618.31;5329190;33;35217;-85
2023/01/10 09:22:02;;;;;;;1.52;1.42;;;;;;;4.87;100.00;99631.84;5325813;33;34362;-85
2023/01/10 09:25:06;;;;;;;1.77;1.37;;;;;;;4.78;100.00;99635.47;5314786;33;32816;-87
2023/01/10 09:28:12;;;;;;;1.75;1.65;;;;;;;4.80;100.00;99644.16;5325880;33;32197;-85
2023/01/10 09:31:18;;;;;;;1.87;1.50;;;;;;;4.70;100.00;99646.09;5333351;33;34246;-85
2023/01/10 09:34:21;;;;;;;2.33;1.48;;;;;;;4.61;100.00;99647.03;5325325;33;34512;-86
2023/01/10 09:37:24;;;;;;;1.25;1.10;;;;;;;4.62;100.00;99654.03;5326122;33;34313;-85
2023/01/10 09:40:29;;;;;;;2.08;1.10;;;;;;;4.55;100.00;99661.81;5324961;33;32411;-87
2023/01/10 09:43:51;;;;;;;1.75;1.15;;;;;;;4.59;100.00;99676.50;5323861;33;34893;-86
2023/01/10 09:47:13;;;;;;;1.45;1.35;;;;;;;4.55;100.00;99675.16;5309766;33;34321;-86
2023/01/10 09:50:48;;;;;;;1.40;1.30;;;;;;;4.53;100.00;99680.66;5311014;33;32309;-87
2023/01/10 09:53:55;;;;;;;0.90;0.90;;;;;;;4.42;100.00;99690.72;5311018;33;33905;-90
2023/01/10 09:57:16;;;;;;;1.58;1.45;;;;;;;4.41;100.00;99708.53;5326130;33;34755;-91
2023/01/10 10:00:23;;;;;;;1.33;1.23;;;;;;;4.35;100.00;99700.31;5325074;33;34538;-87
2023/01/10 10:03:52;;;;;;;1.52;1.40;;;;;;;4.42;100.00;99706.72;5311252;33;33373;-88
2023/01/10 10:06:55;;;;;;;1.55;1.30;;;;;;;4.33;100.00;99713.81;5321430;33;34027;-88
2023/01/10 10:09:58;;;;;;;2.45;1.20;;;;;;;4.35;100.00;99711.81;5323771;33;33505;-86
2023/01/10 10:13:22;;;;;;;1.10;1.10;;;;;;;4.37;100.00;99715.16;5325393;33;34096;-86
2023/01/10 10:17:11;;;;;;;1.40;1.30;;;;;;;4.34;100.00;99709.31;5323052;33;34763;-86
2023/01/10 10:20:33;;;;;;;1.27;1.15;;;;;;;4.32;100.00;99718.28;5320454;33;34847;-86
2023/01/10 10:24:05;;;;;;;1.02;0.90;;;;;;;4.34;100.00;99717.31;5310484;33;33710;-86
2023/01/10 10:27:20;;;;;;;1.20;1.10;;;;;;;4.33;100.00;99721.81;5320588;33;33931;-86
2023/01/10 10:30:54;;;;;;;1.30;1.20;;;;;;;4.32;100.00;99712.13;5310947;33;33023;-86
2023/01/10 10:34:25;;;;;;;1.75;1.50;;;;;;;4.28;100.00;99719.59;5325682;33;35032;-86
2023/01/10 10:37:37;;;;;;;1.20;1.20;;;;;;;4.39;100.00;99742.50;5325782;33;33461;-86
2023/01/10 10:40:44;;;;;;;1.10;1.10;;;;;;;4.31;100.00;99743.25;5328754;33;33884;-86
2023/01/10 10:43:47;;;;;;;1.17;1.08;;;;;;;4.30;100.00;99748.75;5327474;33;34215;-86
2023/01/10 10:46:51;;;;;;;1.30;1.20;;;;;;;4.28;100.00;99748.06;5322930;33;34853;-86
2023/01/10 10:50:33;;;;;;;1.42;1.33;;;;;;;4.20;100.00;99754.16;5322216;33;33986;-86
2023/01/10 10:53:36;;;;;;;1.52;1.12;;;;;;;4.17;100.00;99769.59;5310119;33;32193;-86
2023/01/10 10:56:40;;;;;;;1.00;1.00;;;;;;;4.16;100.00;99767.94;5323985;33;34714;-89
2023/01/10 10:59:47;;;;;;;1.30;1.27;;;;;;;4.20;100.00;99774.63;5309107;33;32232;-89
2023/01/10 11:03:17;;;;;;;1.58;1.35;;;;;;;4.23;100.00;99787.66;5323832;33;34200;-85
2023/01/10 11:06:23;;;;;;;1.60;1.50;;;;;;;4.25;100.00;99785.69;5322936;33;35069;-86
2023/01/10 11:12:40;;;;;;;;;;;;;;;4.21;100.00;99803.81;5325759;33;34873;-85
2023/01/10 11:15:45;;;;;;;1.10;1.05;;;;;;;4.15;100.00;99803.53;5327331;33;33498;-85
2023/01/10 11:19:07;;;;;;;1.45;1.35;;;;;;;4.23;100.00;99809.78;5327305;33;34068;-85
2023/01/10 11:22:15;;;;;;;1.52;1.33;;;;;;;4.25;100.00;99822.97;5324957;33;33966;-85
2023/01/10 11:25:21;;;;;;;1.52;1.42;;;;;;;4.27;100.00;99829.84;5325194;33;34444;-85
2023/01/10 11:28:29;;;;;;;1.58;1.48;;;;;;;4.25;100.00;99823.81;5331037;33;32438;-86
2023/01/10 11:31:32;;;;;;;2.67;1.77;;;;;;;4.30;100.00;99820.72;5326719;33;33778;-85
2023/01/10 11:34:36;;;;;;;1.37;1.27;;;;;;;4.32;100.00;99829.38;5313928;33;33962;-84
2023/01/10 11:37:39;;;;;;;1.40;1.30;;;;;;;4.30;100.00;99840.19;5327748;33;34005;-85
2023/01/10 11:40:54;;;;;;;1.45;1.35;;;;;;;4.32;100.00;99830.19;5310262;33;35525;-85
2023/01/10 11:44:16;;;;;;;1.95;1.40;;;;;;;4.36;100.00;99832.56;5325719;33;34813;-85
2023/01/10 11:47:20;;;;;;;2.05;1.30;;;;;;;4.33;100.00;99833.72;5326072;33;34308;-85
2023/01/10 11:50:30;;;;;;;2.05;1.40;;;;;;;4.42;100.00;99846.16;5325829;33;33822;-84
2023/01/10 11:53:42;;;;;;;1.70;1.60;;;;;;;4.40;100.00;99845.44;5314522;33;35172;-85
2023/01/10 11:56:55;;;;;;;1.35;1.25;;;;;;;4.40;100.00;99856.09;5325837;33;34178;-85
2023/01/10 12:00:05;;;;;;;3.50;1.73;;;;;;;4.44;100.00;99845.97;5325649;33;32848;-85
2023/01/10 12:03:28;;;;;;;1.42;1.35;;;;;;;4.45;100.00;99853.84;5309768;33;33825;-85
2023/01/10 12:06:32;;;;;;;2.20;1.50;;;;;;;4.45;100.00;99855.66;5326154;33;35040;-85
2023/01/10 12:09:42;;;;;;;1.75;1.55;;;;;;;4.47;100.00;99869.66;5321920;33;34843;-85
2023/01/10 12:12:54;;;;;;;1.50;1.40;;;;;;;4.50;100.00;99861.38;5320969;33;33727;-85
2023/01/10 12:16:21;;;;;;;1.92;1.50;;;;;;;4.51;100.00;99873.72;5322738;33;34363;-85
2023/01/10 12:19:28;;;;;;;1.57;1.47;;;;;;;4.48;100.00;99876.69;5326540;33;34036;-85
2023/01/10 12:22:58;;;;;;;1.73;1.52;;;;;;;4.50;100.00;99883.53;5326625;33;34719;-85
2023/01/10 12:26:01;;;;;;;2.33;1.52;;;;;;;4.52;100.00;99873.56;5305373;33;32720;-85
2023/01/10 12:29:18;;;;;;;1.50;1.40;;;;;;;4.57;100.00;99881.09;5303734;33;32421;-85
2023/01/10 12:32:31;;;;;;;1.60;1.50;;;;;;;4.54;100.00;99881.41;5323155;33;34105;-90
2023/01/10 12:36:14;;;;;;;1.48;1.37;;;;;;;4.46;100.00;99890.16;5325053;33;34068;-86
2023/01/10 12:39:33;;;;;;;1.33;1.23;;;;;;;4.52;100.00;99899.38;5325419;33;34067;-85
2023/01/10 12:46:12;;;;;;;1.27;1.17;;;;;;;4.53;100.00;99917.03;5329777;33;34570;-85
2023/01/10 12:49:45;;;;;;;1.85;1.40;;;;;;;4.51;100.00;99924.37;5325088;33;34050;-85
2023/01/10 12:53:00;;;;;;;1.75;1.35;;;;;;;4.50;100.00;99936.84;5325152;33;34186;-86
2023/01/10 12:56:12;;;;;;;2.30;1.35;;;;;;;4.51;100.00;99935.03;5327713;33;34301;-85
2023/01/10 12:59:19;;;;;;;2.33;1.40;;;;;;;4.49;100.00;99945.00;5327305;33;34246;-89
2023/01/10 13:02:42;;;;;;;1.50;1.37;;;;;;;4.44;100.00;99939.25;5328810;33;33825;-86
2023/01/10 13:05:48;;;;;;;2.15;1.48;;;;;;;4.52;100.00;99940.19;5328787;33;34075;-83
2023/01/10 13:08:52;;;;;;;1.42;1.17;;;;;;;4.50;100.00;99944.84;5334914;33;34033;-84
2023/01/10 13:12:20;;;;;;;2.10;1.55;;;;;;;4.43;100.00;99958.91;5334614;33;34391;-85
2023/01/10 13:15:29;;;;;;;1.60;1.50;;;;;;;4.47;100.00;99960.28;5326837;33;34122;-84
2023/01/10 13:18:33;;;;;;;1.35;1.33;;;;;;;4.53;100.00;99963.22;5326738;33;34458;-84
2023/01/10 13:21:38;;;;;;;1.20;1.20;;;;;;;4.54;100.00;99956.88;5324230;33;33108;-84
2023/01/10 13:24:58;;;;;;;1.50;1.40;;;;;;;4.51;100.00;99965.19;5325384;33;35451;-84
2023/01/10 13:28:14;;;;;;;1.48;1.40;;;;;;;4.49;100.00;99969.81;5324798;33;34830;-84
2023/01/10 13:31:33;;;;;;;1.92;1.75;;;;;;;4.53;100.00;99981.00;5323129;33;34515;-84
2023/01/10 13:34:36;;;;;;;2.97;1.70;;;;;;;4.56;100.00;99986.03;5313199;33;32551;-84
2023/01/10 13:37:42;;;;;;;1.80;1.70;;;;;;;4.58;100.00;99988.56;5326828;33;35420;-84
2023/01/10 13:43:17;;;;;;;1.50;1.40;;;;;;;4.59;100.00;100000.91;5315423;33;33327;-84
2023/01/10 13:45:02;;;;;;;1.45;1.27;;;;;;;4.54;100.00;100004.03;5323290;33;33975;-83
2023/01/10 13:48:25;;;;;;;2.47;1.60;;;;;;;4.61;100.00;100017.59;5315851;33;33921;-84
2023/01/10 13:51:31;;;;;;;2.40;1.60;;;;;;;4.59;100.00;100019.56;5322011;33;32268;-84
2023/01/10 13:54:34;;;;;;;1.50;1.40;;;;;;;4.60;100.00;100030.09;5314547;33;32382;-84
2023/01/10 13:57:49;;;;;;;1.65;1.30;;;;;;;4.59;100.00;100027.56;5323047;33;35457;-85
2023/01/10 14:04:26;;;;;;;2.30;1.83;;;;;;;4.63;100.00;100036.97;5311462;33;33024;-84
2023/01/10 14:07:56;;;;;;;1.50;1.40;;;;;;;4.73;100.00;100043.91;5323761;33;34647;-84
2023/01/10 14:11:12;;;;;;;1.55;1.17;;;;;;;4.68;100.00;100046.22;5320957;33;34775;-87
2023/01/10 14:14:29;;;;;;;2.08;1.60;;;;;;;4.78;100.00;100044.31;5330428;33;34260;-85
2023/01/10 14:17:35;;;;;;;1.87;1.60;;;;;;;4.68;100.00;100051.53;5333563;33;33731;-84
2023/01/10 14:20:38;;;;;;;4.10;1.60;;;;;;;4.70;100.00;100064.72;5316765;33;32310;-84
2023/01/10 14:23:48;;;;;;;1.55;1.45;;;;;;;4.68;100.00;100061.34;5323458;33;33776;-84
2023/01/10 14:26:52;;;;;;;;;;;;;;;4.72;100.00;100073.41;5311083;33;34382;-84
2023/01/10 14:30:00;;;;;;;2.45;1.60;;;;;;;4.72;100.00;100078.75;5311090;33;34404;-84
2023/01/10 14:33:18;;;;;;;1.80;1.65;;;;;;;4.71;100.00;100077.03;5323066;33;34019;-84
2023/01/10 14:36:32;;;;;;;1.60;1.50;;;;;;;4.68;100.00;100096.00;5324161;33;34067;-85
2023/01/10 14:39:35;;;;;;;2.60;1.60;;;;;;;4.68;100.00;100090.66;5305075;33;33297;-84
2023/01/10 14:42:38;;;;;;;2.15;1.92;;;;;;;4.68;100.00;100104.87;5311012;33;32591;-86
2023/01/10 14:46:07;;;;;;;1.70;1.60;;;;;;;4.77;100.00;100111.16;5325304;33;35173;-87
2023/01/10 14:49:27;;;;;;;2.03;1.92;;;;;;;4.71;100.00;100122.37;5313942;33;34072;-87
2023/01/10 14:52:30;;;;;;;2.37;1.62;;;;;;;4.67;100.00;100127.16;5313093;33;32755;-86
2023/01/10 14:55:33;;;;;;;1.50;1.40;;;;;;;4.77;100.00;100132.47;5332279;33;33655;-85
2023/01/10 14:58:36;;;;;;;2.00;1.60;;;;;;;4.86;100.00;100136.09;5331140;33;34325;-84
2023/01/10 15:01:39;;;;;;;1.77;1.60;;;;;;;4.85;100.00;100131.72;5325685;33;34085;-84
2023/01/10 15:04:57;;;;;;;3.50;2.15;;;;;;;4.80;100.00;100144.66;5312707;33;32402;-86
2023/01/10 15:08:16;;;;;;;2.00;1.80;;;;;;;4.76;100.00;100141.44;5312216;33;32333;-85
2023/01/10 15:11:19;;;;;;;1.62;1.50;;;;;;;4.79;100.00;100151.81;5324948;33;34380;-84
2023/01/10 15:14:25;;;;;;;2.87;1.73;;;;;;;4.80;100.00;100158.00;5311518;33;32915;-85
2023/01/10 15:17:28;;;;;;;2.60;2.40;;;;;;;4.80;100.00;100158.00;5325546;33;34291;-85
2023/01/10 15:20:32;;;;;;;2.00;1.90;;;;;;;4.82;100.00;100161.38;5325088;33;34783;-85
2023/01/10 15:23:42;;;;;;;2.17;1.95;;;;;;;4.80;100.00;100166.84;5325159;33;33854;-85
2023/01/10 15:26:44;;;;;;;2.97;1.95;;;;;;;4.84;100.00;100173.56;5325601;33;33934;-84
2023/01/10 15:29:47;;;;;;;2.10;1.87;;;;;;;4.84;100.00;100173.56;5327867;33;33942;-84
2023/01/10 15:32:53;;;;;;;2.53;2.10;;;;;;;4.87;100.00;100175.09;5326075;33;34021;-84
2023/01/10 15:36:03;;;;;;;2.62;2.37;;;;;;;4.83;100.00;100190.56;5325555;33;33967;-85
2023/01/10 15:39:17;;;;;;;2.22;1.75;;;;;;;4.76;100.00;100195.63;5311074;33;33735;-85
2023/01/10 15:42:21;;;;;;;2.00;1.90;;;;;;;4.73;100.00;100200.41;5328225;33;34081;-84
2023/01/10 15:45:36;;;;;;;2.08;1.98;;;;;;;4.76;100.00;100202.78;5326952;33;34219;-84
2023/01/10 15:48:42;;;;;;;1.92;1.80;;;;;;;4.75;100.00;100209.13;5329270;33;33834;-84
2023/01/10 15:51:46;;;;;;;2.62;1.90;;;;;;;4.69;100.00;100215.88;5324476;33;34600;-84
2023/01/10 15:54:49;;;;;;;3.03;2.20;;;;;;;4.75;100.00;100231.28;5322207;33;33961;-85
2023/01/10 15:57:52;;;;;;;4.87;2.30;;;;;;;4.68;100.00;100234.66;5326933;33;34202;-85
2023/01/10 16:00:58;;;;;;;3.10;2.55;;;;;;;4.74;100.00;100231.44;5325308;33;34889;-84
2023/01/10 16:04:03;;;;;;;4.53;2.40;;;;;;;4.69;100.00;100231.03;5324819;33;34608;-84
2023/01/10 16:07:25;;;;;;;3.28;2.50;;;;;;;4.68;100.00;100235.53;5325180;33;33928;-85
2023/01/10 16:10:35;;;;;;;2.90;2.45;;;;;;;4.66;100.00;100234.00;5312820;33;33003;-87
2023/01/10 16:13:40;;;;;;;3.12;2.60;;;;;;;4.72;100.00;100247.56;5325246;33;33918;-85
2023/01/10 16:16:43;;;;;;;4.60;3.00;;;;;;;4.72;100.00;100247.56;5325464;33;34578;-84
2023/01/10 16:19:46;;;;;;;3.55;2.45;;;;;;;4.71;100.00;100245.03;5312241;33;32474;-85
2023/01/10 16:22:49;;;;;;;4.28;2.45;;;;;;;4.70;100.00;100251.38;5325584;33;34932;-85
2023/01/10 16:25:58;;;;;;;2.37;2.17;;;;;;;4.82;100.00;100252.03;5325179;33;33667;-85
2023/01/10 16:29:01;;;;;;;2.40;2.20;;;;;;;4.72;100.00;100258.25;5325171;33;33600;-85
2023/01/10 16:32:13;;;;;;;3.58;2.20;;;;;;;4.70;100.00;100254.03;5312231;33;33118;-85
2023/01/10 16:35:18;;;;;;;3.05;2.67;;;;;;;4.64;100.00;100260.78;5311962;33;32391;-85
2023/01/10 16:38:21;;;;;;;4.72;2.45;;;;;;;4.68;100.00;100264.00;5315396;33;33293;-85
2023/01/10 16:44:46;;;;;;;4.15;2.60;;;;;;;4.76;100.00;100272.97;5332001;33;33804;-85
2023/01/10 16:47:49;;;;;;;2.90;2.60;;;;;;;4.80;100.00;100286.00;5317258;33;32359;-85
2023/01/10 16:50:52;;;;;;;5.32;2.58;;;;;;;4.81;100.00;100283.22;5327822;33;34898;-85
2023/01/10 16:53:55;;;;;;;2.75;2.50;;;;;;;4.84;100.00;100298.09;5314440;33;32770;-84
2023/01/10 16:56:58;;;;;;;3.87;2.53;;;;;;;4.82;100.00;100300.06;5329166;33;34421;-84
